createdAt,value
2023-02-16T00:02:00.265Z,2.60
2023-02-16T00:04:33.362Z,2.50
2023-02-16T00:07:00.096Z,2.60
2023-02-16T00:09:26.782Z,2.50
2023-02-16T00:12:11.997Z,2.50
2023-02-16T00:14:39.720Z,2.50
2023-02-16T00:17:06.810Z,2.50
2023-02-16T00:19:38.962Z,2.50
2023-02-16T00:22:07.268Z,2.50
2023-02-16T00:24:34.339Z,2.40
2023-02-16T00:27:01.627Z,2.40
2023-02-16T00:29:32.097Z,2.50
2023-02-16T00:32:00.901Z,2.30
2023-02-16T00:34:30.577Z,2.40
2023-02-16T00:37:02.134Z,2.40
2023-02-16T00:39:29.711Z,2.60
2023-02-16T00:42:07.366Z,2.30
2023-02-16T00:44:38.828Z,2.30
2023-02-16T00:47:38.007Z,2.30
2023-02-16T00:50:17.352Z,2.30
2023-02-16T00:52:47.539Z,2.20
2023-02-16T00:55:22.826Z,2.10
2023-02-16T00:57:59.961Z,2.10
2023-02-16T01:00:50.624Z,2.30
2023-02-16T01:03:23.165Z,2.20
2023-02-16T01:06:10.360Z,2.20
2023-02-16T01:08:58.260Z,2.20
2023-02-16T01:11:28.438Z,2.20
2023-02-16T01:13:56.425Z,2.30
2023-02-16T01:16:37.923Z,2.20
2023-02-16T01:19:05.234Z,2.20
2023-02-16T01:21:31.942Z,2.20
2023-02-16T01:24:01.097Z,2.20
2023-02-16T01:26:27.942Z,2.10
2023-02-16T01:28:54.656Z,2.70
2023-02-16T01:31:23.725Z,2.10
2023-02-16T01:33:52.991Z,2.10
2023-02-16T01:36:24.516Z,2.00
2023-02-16T01:38:51.340Z,1.90
2023-02-16T01:41:36.063Z,2.00
2023-02-16T01:44:23.622Z,2.00
2023-02-16T01:47:18.010Z,1.90
2023-02-16T01:49:46.929Z,2.00
2023-02-16T01:52:22.550Z,1.90
2023-02-16T01:54:58.057Z,2.00
2023-02-16T01:57:33.619Z,1.90
2023-02-16T02:00:28.410Z,1.90
2023-02-16T02:03:19.817Z,1.90
2023-02-16T02:05:48.716Z,1.90
2023-02-16T02:08:21.808Z,1.90
2023-02-16T02:11:00.613Z,1.80
2023-02-16T02:13:41.636Z,1.80
2023-02-16T02:16:10.051Z,1.80
2023-02-16T02:18:36.830Z,1.80
2023-02-16T02:21:59.724Z,1.60
2023-02-16T02:24:26.331Z,1.70
2023-02-16T02:27:14.955Z,1.60
2023-02-16T02:30:06.710Z,1.70
2023-02-16T02:33:00.375Z,1.70
2023-02-16T02:35:43.489Z,1.60
2023-02-16T02:38:33.593Z,1.70
2023-02-16T02:41:19.295Z,1.60
2023-02-16T02:44:09.840Z,1.60
2023-02-16T02:46:37.917Z,1.60
2023-02-16T02:49:04.634Z,1.50
2023-02-16T03:02:46.831Z,1.40
2023-02-16T03:05:15.389Z,1.50
2023-02-16T03:07:49.553Z,1.50
2023-02-16T03:10:47.913Z,1.40
2023-02-16T03:13:37.990Z,1.40
2023-02-16T03:16:23.602Z,1.50
2023-02-16T03:19:09.095Z,1.40
2023-02-16T03:21:54.768Z,1.40
2023-02-16T03:24:45.753Z,1.40
2023-02-16T03:27:34.611Z,1.40
2023-02-16T03:30:04.666Z,1.40
2023-02-16T03:32:34.461Z,1.20
2023-02-16T03:35:01.208Z,2.20
2023-02-16T03:37:30.305Z,1.30
2023-02-16T03:40:15.500Z,1.30
2023-02-16T03:42:51.847Z,1.20
2023-02-16T03:45:22.489Z,1.20
2023-02-16T03:47:49.412Z,1.30
2023-02-16T03:50:18.654Z,1.20
2023-02-16T03:52:45.316Z,1.20
2023-02-16T03:55:12.133Z,1.20
2023-02-16T03:57:38.795Z,1.20
2023-02-16T04:00:06.703Z,0.90
2023-02-16T04:02:33.365Z,1.20
2023-02-16T04:05:02.478Z,1.10
2023-02-16T04:07:31.961Z,1.10
2023-02-16T04:09:58.713Z,1.20
2023-02-16T04:12:37.313Z,1.10
2023-02-16T04:15:12.707Z,1.10
2023-02-16T04:17:42.027Z,1.10
2023-02-16T04:20:13.974Z,1.10
2023-02-16T04:22:45.835Z,1.00
2023-02-16T04:25:12.665Z,1.00
2023-02-16T04:27:42.054Z,0.90
2023-02-16T04:30:11.653Z,0.80
2023-02-16T04:32:38.655Z,0.90
2023-02-16T04:42:31.884Z,0.90
2023-02-16T04:45:01.000Z,0.90
2023-02-16T04:47:28.601Z,0.90
2023-02-16T04:49:55.386Z,0.90
2023-02-16T04:52:24.533Z,0.80
2023-02-16T04:54:51.321Z,0.80
2023-02-16T05:59:27.184Z,0.20
2023-02-16T06:01:54.027Z,0.50
2023-02-16T06:04:22.993Z,0.40
2023-02-16T06:06:50.246Z,0.50
2023-02-16T06:09:19.213Z,0.30
2023-02-16T06:11:50.751Z,0.40
2023-02-16T06:14:19.882Z,0.30
2023-02-16T06:16:50.009Z,0.40
2023-02-16T06:24:17.940Z,0.30
2023-02-16T06:26:47.211Z,1.00
2023-02-16T06:36:35.497Z,0.30
2023-02-16T06:41:32.303Z,0.30
2023-02-16T06:44:04.625Z,0.40
2023-02-16T06:46:31.456Z,0.50
2023-02-16T06:49:03.099Z,0.40
2023-02-16T06:51:30.316Z,0.30
2023-02-16T06:53:57.318Z,0.60
2023-02-16T06:56:24.637Z,0.30
2023-02-16T06:58:51.715Z,0.30
2023-02-16T07:11:14.828Z,0.40
2023-02-16T07:13:41.463Z,0.40
2023-02-16T07:16:08.204Z,0.50
2023-02-16T07:18:40.002Z,0.40
2023-02-16T07:21:09.244Z,0.40
2023-02-16T07:23:35.998Z,0.40
2023-02-16T07:26:05.221Z,0.50
2023-02-16T07:28:31.945Z,0.60
2023-02-16T07:31:05.543Z,0.70
2023-02-16T07:33:32.422Z,0.60
2023-02-16T07:36:01.324Z,0.70
2023-02-16T07:38:30.826Z,0.70
2023-02-16T07:40:58.400Z,0.80
2023-02-16T07:43:26.182Z,0.80
2023-02-16T07:45:53.331Z,0.70
2023-02-16T07:53:16.948Z,1.00
2023-02-16T07:55:45.437Z,1.40
2023-02-16T07:58:27.048Z,2.50
2023-02-16T08:03:35.528Z,1.50
2023-02-16T08:06:03.055Z,1.80
2023-02-16T08:08:29.858Z,2.60
2023-02-16T08:10:56.702Z,2.00
2023-02-16T08:13:23.415Z,2.20
2023-02-16T08:15:50.265Z,2.20
2023-02-16T08:18:17.082Z,2.70
2023-02-16T08:21:02.352Z,2.90
2023-02-16T08:23:30.239Z,3.10
2023-02-16T08:25:59.078Z,3.30
2023-02-16T08:28:28.637Z,3.50
2023-02-16T08:30:55.743Z,3.70
2023-02-16T08:33:27.120Z,4.70
2023-02-16T08:35:53.788Z,4.30
2023-02-16T08:38:20.852Z,4.40
2023-02-16T08:40:53.368Z,4.50
2023-02-16T08:43:20.096Z,4.80
2023-02-16T08:45:47.669Z,5.00
2023-02-16T08:48:14.994Z,5.10
2023-02-16T08:50:55.371Z,5.70
2023-02-16T08:53:23.322Z,5.80
2023-02-16T08:55:57.569Z,5.70
2023-02-16T08:58:29.763Z,5.90
2023-02-16T09:00:57.091Z,6.10
2023-02-16T09:03:24.542Z,6.20
2023-02-16T09:05:55.669Z,6.60
2023-02-16T09:08:22.375Z,7.30
2023-02-16T09:10:51.529Z,6.60
2023-02-16T09:13:18.217Z,6.80
2023-02-16T09:15:45.494Z,7.10
2023-02-16T09:18:16.498Z,7.80
2023-02-16T09:20:47.035Z,7.00
2023-02-16T09:23:13.856Z,8.40
2023-02-16T09:25:43.364Z,10.90
2023-02-16T09:28:13.767Z,12.70
2023-02-16T09:38:02.413Z,16.30
2023-02-16T09:40:29.115Z,16.80
2023-02-16T09:43:17.295Z,17.50
2023-02-16T09:45:47.651Z,18.10
2023-02-16T09:48:26.457Z,18.40
2023-02-16T09:50:55.058Z,18.80
2023-02-16T09:53:32.538Z,19.10
2023-02-16T09:56:20.515Z,19.20
2023-02-16T09:58:57.336Z,18.60
2023-02-16T10:01:24.349Z,17.70
2023-02-16T10:04:07.877Z,17.30
2023-02-16T10:07:00.918Z,16.90
2023-02-16T10:09:32.788Z,16.70
2023-02-16T10:12:13.214Z,16.70
2023-02-16T10:14:55.230Z,17.10
2023-02-16T10:17:37.735Z,16.50
2023-02-16T10:20:18.497Z,17.20
2023-02-16T10:23:10.576Z,19.20
2023-02-16T10:25:54.691Z,19.80
2023-02-16T10:28:50.857Z,20.50
2023-02-16T10:31:24.026Z,20.50
2023-02-16T10:34:03.069Z,20.00
2023-02-16T10:36:38.235Z,19.50
2023-02-16T10:39:27.768Z,18.10
2023-02-16T10:42:11.580Z,18.00
2023-02-16T10:44:47.000Z,17.50
2023-02-16T10:47:34.698Z,17.30
2023-02-16T10:50:01.671Z,17.00
2023-02-16T10:52:36.075Z,16.90
2023-02-16T10:55:02.819Z,17.10
2023-02-16T10:57:33.142Z,17.80
2023-02-16T11:00:10.303Z,17.40
2023-02-16T11:02:38.986Z,17.00
2023-02-16T11:05:27.429Z,16.60
2023-02-16T11:07:57.000Z,16.40
2023-02-16T11:10:36.542Z,16.20
2023-02-16T11:13:04.394Z,16.20
2023-02-16T11:15:31.625Z,16.20
2023-02-16T11:18:24.774Z,16.10
2023-02-16T11:20:57.312Z,16.00
2023-02-16T11:23:41.801Z,15.90
2023-02-16T11:26:11.769Z,15.90
2023-02-16T11:28:39.637Z,15.90
2023-02-16T11:31:42.549Z,15.90
2023-02-16T11:34:32.118Z,15.80
2023-02-16T11:37:19.677Z,15.80
2023-02-16T11:39:59.842Z,15.80
2023-02-16T11:42:40.321Z,15.90
2023-02-16T11:45:10.826Z,15.90
2023-02-16T11:47:44.738Z,15.90
2023-02-16T11:50:19.695Z,15.90
2023-02-16T11:52:51.600Z,15.80
2023-02-16T11:55:33.005Z,15.90
2023-02-16T11:58:31.544Z,16.00
2023-02-16T12:01:16.588Z,16.10
2023-02-16T12:04:21.085Z,16.20
2023-02-16T12:07:27.954Z,16.30
2023-02-16T12:10:08.813Z,16.30
2023-02-16T12:12:53.656Z,16.30
2023-02-16T12:15:32.186Z,16.20
2023-02-16T12:18:23.412Z,16.20
2023-02-16T12:21:12.068Z,16.20
2023-02-16T12:23:59.726Z,16.10
2023-02-16T12:26:38.289Z,16.00
2023-02-16T12:29:11.582Z,15.90
2023-02-16T12:32:00.191Z,15.80
2023-02-16T12:34:52.751Z,15.70
2023-02-16T12:37:44.594Z,15.60
2023-02-16T12:40:41.783Z,15.60
2023-02-16T12:43:26.816Z,15.50
2023-02-16T12:45:54.977Z,15.30
2023-02-16T12:48:30.212Z,15.60
2023-02-16T12:50:58.938Z,15.30
2023-02-16T12:53:37.607Z,15.30
2023-02-16T12:56:14.410Z,15.30
2023-02-16T12:58:45.325Z,15.20
2023-02-16T13:01:19.041Z,15.20
2023-02-16T13:03:57.483Z,15.60
2023-02-16T13:06:33.908Z,15.10
2023-02-16T13:09:16.190Z,15.10
2023-02-16T13:12:09.730Z,15.10
2023-02-16T13:14:41.928Z,15.10
2023-02-16T13:17:18.068Z,15.10
2023-02-16T13:19:46.926Z,15.20
2023-02-16T13:22:36.908Z,15.20
2023-02-16T13:25:39.614Z,15.20
2023-02-16T13:28:39.568Z,15.30
2023-02-16T13:31:23.984Z,15.30
2023-02-16T13:34:11.472Z,15.30
2023-02-16T13:37:12.846Z,15.30
2023-02-16T13:40:10.715Z,15.30
2023-02-16T13:43:04.832Z,15.30
2023-02-16T13:45:36.929Z,15.30
2023-02-16T13:48:21.278Z,15.20
2023-02-16T13:50:57.013Z,15.30
2023-02-16T13:53:24.513Z,15.30
2023-02-16T13:56:43.236Z,15.30
2023-02-16T13:59:19.358Z,15.30
2023-02-16T14:01:47.924Z,15.20
2023-02-16T14:04:23.879Z,15.90
2023-02-16T14:07:09.697Z,15.20
2023-02-16T14:09:39.303Z,15.30
2023-02-16T14:12:11.925Z,15.20
2023-02-16T14:14:41.345Z,15.20
2023-02-16T14:17:22.418Z,15.40
2023-02-16T14:19:54.106Z,15.10
2023-02-16T14:22:34.051Z,15.20
2023-02-16T14:25:07.446Z,15.10
2023-02-16T14:27:56.351Z,15.10
2023-02-16T14:30:42.023Z,15.10
2023-02-16T14:33:17.691Z,15.10
2023-02-16T14:36:07.988Z,15.10
2023-02-16T14:39:03.892Z,15.10
2023-02-16T14:41:35.372Z,15.10
2023-02-16T14:44:05.011Z,15.20
2023-02-16T14:46:50.970Z,15.00
2023-02-16T14:49:42.116Z,15.00
2023-02-16T14:52:35.816Z,15.00
2023-02-16T14:55:33.131Z,14.90
2023-02-16T14:58:16.896Z,14.70
2023-02-16T15:01:07.564Z,14.70
2023-02-16T15:03:41.731Z,14.60
2023-02-16T15:06:31.056Z,14.50
2023-02-16T15:09:04.787Z,14.50
2023-02-16T15:12:00.836Z,14.50
2023-02-16T15:14:30.596Z,14.30
2023-02-16T15:16:58.268Z,14.30
2023-02-16T15:19:32.724Z,14.60
2023-02-16T15:22:18.454Z,14.90
2023-02-16T15:24:59.337Z,14.10
2023-02-16T15:27:26.278Z,14.00
2023-02-16T15:30:21.561Z,14.30
2023-02-16T15:32:54.608Z,13.80
2023-02-16T15:35:28.970Z,13.70
2023-02-16T15:38:09.714Z,13.60
2023-02-16T15:40:37.187Z,13.50
2023-02-16T15:43:16.734Z,13.50
2023-02-16T15:45:54.993Z,13.30
2023-02-16T15:48:25.604Z,13.10
2023-02-16T15:50:55.382Z,13.20
2023-02-16T15:53:38.951Z,13.10
2023-02-16T15:56:27.900Z,13.00
2023-02-16T15:58:56.408Z,12.90
2023-02-16T16:01:35.210Z,12.90
2023-02-16T16:04:23.972Z,12.80
2023-02-16T16:06:52.052Z,12.80
2023-02-16T16:09:30.881Z,12.60
2023-02-16T16:12:01.451Z,12.50
2023-02-16T16:14:28.726Z,12.40
2023-02-16T16:16:56.908Z,12.40
2023-02-16T16:19:39.742Z,12.20
2023-02-16T16:22:38.435Z,12.30
2023-02-16T16:25:38.743Z,12.20
2023-02-16T16:28:13.823Z,12.10
2023-02-16T16:30:45.242Z,12.00
2023-02-16T16:33:15.535Z,12.00
2023-02-16T16:35:50.231Z,11.90
2023-02-16T16:38:24.874Z,11.80
2023-02-16T16:40:55.029Z,11.80
2023-02-16T16:43:38.252Z,11.70
2023-02-16T16:46:20.168Z,11.60
2023-02-16T16:48:52.774Z,11.60
2023-02-16T16:51:27.514Z,11.50
2023-02-16T16:53:54.305Z,11.40
2023-02-16T16:56:21.814Z,11.40
2023-02-16T16:58:51.313Z,11.30
2023-02-16T17:01:20.008Z,11.20
2023-02-16T17:03:47.250Z,11.20
2023-02-16T17:06:19.444Z,11.20
2023-02-16T17:08:51.854Z,11.10
2023-02-16T17:11:36.475Z,11.00
2023-02-16T17:14:19.462Z,10.90
2023-02-16T17:19:18.154Z,10.80
2023-02-16T17:21:45.442Z,10.80
2023-02-16T17:24:12.908Z,10.60
2023-02-16T17:26:40.441Z,10.70
2023-02-16T17:29:09.426Z,10.70
2023-02-16T17:31:38.653Z,10.60
2023-02-16T17:34:05.470Z,10.60
2023-02-16T17:36:34.340Z,10.50
2023-02-16T17:39:03.286Z,10.40
2023-02-16T17:41:32.650Z,10.40
2023-02-16T17:43:59.393Z,10.30
2023-02-16T17:46:28.021Z,10.30
2023-02-16T17:48:55.374Z,10.20
2023-02-16T17:51:25.780Z,10.20
2023-02-16T17:53:52.683Z,10.20
2023-02-16T17:56:21.628Z,10.20
2023-02-16T17:58:48.662Z,10.10
2023-02-16T18:01:17.293Z,10.10
2023-02-16T18:03:44.615Z,10.00
2023-02-16T18:06:14.668Z,10.40
2023-02-16T18:08:41.701Z,10.00
2023-02-16T18:11:10.586Z,10.00
2023-02-16T18:13:39.398Z,10.20
2023-02-16T18:16:08.177Z,9.80
2023-02-16T18:18:38.890Z,10.10
2023-02-16T18:21:05.909Z,9.80
2023-02-16T18:23:33.565Z,9.70
2023-02-16T18:26:03.677Z,9.70
2023-02-16T18:28:34.628Z,9.70
2023-02-16T18:31:04.794Z,9.70
2023-02-16T18:33:34.781Z,9.60
2023-02-16T18:36:02.122Z,9.60
2023-02-16T18:38:28.915Z,9.50
2023-02-16T18:40:58.078Z,9.50
2023-02-16T18:43:27.038Z,9.50
2023-02-16T18:45:55.912Z,9.40
2023-02-16T18:48:25.174Z,9.40
2023-02-16T18:50:51.858Z,10.20
2023-02-16T18:53:21.100Z,9.50
2023-02-16T18:55:47.843Z,9.30
2023-02-16T18:58:15.076Z,9.20
2023-02-16T19:00:42.144Z,9.10
2023-02-16T19:03:09.196Z,9.40
2023-02-16T19:05:35.922Z,9.20
2023-02-16T19:08:02.657Z,9.20
2023-02-16T19:10:32.576Z,9.20
2023-02-16T19:13:02.268Z,9.10
2023-02-16T19:15:33.246Z,9.10
2023-02-16T19:18:02.288Z,9.00
2023-02-16T19:20:33.508Z,9.00
2023-02-16T19:23:02.506Z,8.90
2023-02-16T19:25:29.420Z,8.90
2023-02-16T19:27:58.384Z,8.90
2023-02-16T19:30:27.693Z,8.90
2023-02-16T19:32:55.828Z,8.60
2023-02-16T19:35:25.298Z,8.80
2023-02-16T19:37:52.079Z,8.80
2023-02-16T19:40:21.605Z,8.80
2023-02-16T19:42:48.310Z,8.70
2023-02-16T19:45:15.122Z,8.70
2023-02-16T19:47:44.321Z,8.70
2023-02-16T19:50:11.169Z,8.60
2023-02-16T19:52:40.351Z,8.60
2023-02-16T19:55:11.227Z,8.60
2023-02-16T19:57:38.357Z,8.50
2023-02-16T20:00:11.356Z,9.40
2023-02-16T20:02:38.058Z,8.60
2023-02-16T20:05:09.615Z,8.30
2023-02-16T20:07:36.490Z,8.60
2023-02-16T20:10:03.629Z,8.90
2023-02-16T20:12:32.814Z,8.60
2023-02-16T20:14:59.501Z,8.50
2023-02-16T20:17:26.325Z,9.20
2023-02-16T20:19:53.097Z,8.60
2023-02-16T20:22:24.447Z,8.50
2023-02-16T20:24:51.091Z,8.50
2023-02-16T20:27:20.031Z,8.50
2023-02-16T20:29:46.711Z,8.50
2023-02-16T20:32:15.731Z,8.50
2023-02-16T20:34:42.642Z,8.70
2023-02-16T20:37:09.417Z,8.60
2023-02-16T20:39:36.139Z,8.70
2023-02-16T20:42:02.885Z,9.80
2023-02-16T20:44:32.158Z,8.50
2023-02-16T20:46:58.832Z,8.50
2023-02-16T20:49:25.659Z,8.60
2023-02-16T20:51:52.390Z,8.50
2023-02-16T20:54:19.248Z,8.50
2023-02-16T20:56:45.946Z,8.60
2023-02-16T20:59:12.973Z,8.50
2023-02-16T21:01:46.436Z,8.80
2023-02-16T21:04:18.477Z,8.70
2023-02-16T21:06:45.340Z,8.50
2023-02-16T21:09:12.644Z,8.50
2023-02-16T21:11:44.786Z,8.60
2023-02-16T21:14:12.361Z,8.50
2023-02-16T21:16:40.921Z,8.50
2023-02-16T21:19:22.248Z,8.50
2023-02-16T21:21:49.677Z,8.50
2023-02-16T21:24:18.480Z,8.50
2023-02-16T21:26:45.258Z,8.50
2023-02-16T21:29:14.324Z,8.40
2023-02-16T21:31:44.131Z,8.40
2023-02-16T21:34:10.862Z,8.40
2023-02-16T21:36:40.033Z,8.40
2023-02-16T21:39:08.948Z,8.40
2023-02-16T21:41:35.744Z,8.40
2023-02-16T21:44:11.344Z,8.40
2023-02-16T21:46:43.355Z,9.30
2023-02-16T21:49:15.443Z,8.40
2023-02-16T21:51:46.073Z,8.40
2023-02-16T21:54:16.120Z,8.40
2023-02-16T21:56:45.475Z,8.30
2023-02-16T21:59:14.676Z,8.60
2023-02-16T22:01:44.306Z,8.30
2023-02-16T22:04:15.937Z,8.30
2023-02-16T22:06:45.355Z,8.20
2023-02-16T22:09:18.267Z,8.20
2023-02-16T22:11:45.664Z,8.10
2023-02-16T22:14:12.878Z,8.00
2023-02-16T22:16:39.944Z,8.10
2023-02-16T22:19:12.832Z,8.00
2023-02-16T22:21:41.822Z,8.00
2023-02-16T22:24:14.692Z,7.90
2023-02-16T22:26:41.485Z,8.00
2023-02-16T22:29:09.893Z,7.80
2023-02-16T22:31:39.364Z,7.80
2023-02-16T22:34:08.586Z,7.70
2023-02-16T22:36:37.964Z,7.50
2023-02-16T22:39:05.281Z,7.60
2023-02-16T22:41:35.463Z,7.60
2023-02-16T22:44:02.578Z,7.60
2023-02-16T22:46:30.250Z,7.50
2023-02-16T22:49:02.024Z,7.50
2023-02-16T22:51:30.541Z,7.50
2023-02-16T22:54:03.279Z,7.40
2023-02-16T22:56:33.585Z,7.40
2023-02-16T22:59:00.890Z,7.30
2023-02-16T23:01:31.255Z,8.40
2023-02-16T23:04:01.296Z,7.20
2023-02-16T23:06:31.915Z,7.20
2023-02-16T23:09:06.304Z,7.10
2023-02-16T23:11:34.932Z,7.10
2023-02-16T23:14:02.164Z,7.00
2023-02-16T23:16:28.944Z,7.10
2023-02-16T23:18:59.308Z,7.00
2023-02-16T23:21:28.793Z,6.90
2023-02-16T23:23:58.845Z,7.00
2023-02-16T23:26:28.325Z,6.90
2023-02-16T23:28:56.780Z,6.90
2023-02-16T23:31:26.156Z,6.90
2023-02-16T23:33:56.147Z,6.80
2023-02-16T23:36:27.538Z,6.80
2023-02-16T23:38:54.220Z,7.20
2023-02-16T23:41:28.044Z,6.80
2023-02-16T23:43:56.969Z,6.80
2023-02-16T23:46:24.298Z,6.80
2023-02-16T23:48:51.046Z,6.80
2023-02-16T23:51:17.780Z,6.80
2023-02-16T23:53:46.962Z,6.90
2023-02-16T23:56:25.088Z,6.90
2023-02-16T23:58:58.051Z,6.90
